Time;durP1;ratioP1;P1;durP2;ratioP2;P2;SDS_P1;SDS_P2;PMS_P1;PMS_P2;Temp;Humidity;BMP_temperature;BMP_pressure;BME280_temperature;BME280_humidity;BME280_pressure;Samples;Min_cycle;Max_cycle;Signal;HPM_P1;HPM_P2
2021/09/23 00:01:29;;;;;;;3.65;3.30;;;;;;;;;;5067537;28;20021;-58
2021/09/23 00:06:21;;;;;;;3.22;2.92;;;;;;;;;;5067373;28;20020;-58
2021/09/23 00:08:47;;;;;;;3.58;2.90;;;;;;;;;;5068159;28;20071;-58
2021/09/23 00:11:13;;;;;;;3.83;2.97;;;;;;;;;;5067192;28;20111;-58
2021/09/23 00:13:40;;;;;;;3.97;3.58;;;;;;;;;;5067232;28;20029;-58
2021/09/23 00:16:06;;;;;;;3.90;3.50;;;;;;;;;;5067484;28;20036;-58
2021/09/23 00:18:32;;;;;;;4.35;3.65;;;;;;;;;;5081242;28;20036;-59
2021/09/23 00:20:58;;;;;;;5.10;3.53;;;;;;;;;;5088003;28;20020;-59
2021/09/23 00:23:25;;;;;;;3.63;3.20;;;;;;;;;;5087537;28;20051;-58
2021/09/23 00:25:51;;;;;;;3.75;3.45;;;;;;;;;;5087548;28;20387;-59
2021/09/23 00:28:17;;;;;;;4.32;3.60;;;;;;;;;;5088346;28;20518;-59
2021/09/23 00:30:43;;;;;;;4.30;3.83;;;;;;;;;;5086254;28;20698;-59
2021/09/23 00:33:09;;;;;;;3.80;3.45;;;;;;;;;;5087328;28;20032;-59
2021/09/23 00:35:35;;;;;;;4.38;3.63;;;;;;;;;;5087504;28;20027;-59
2021/09/23 00:38:02;;;;;;;4.35;3.63;;;;;;;;;;5068556;28;20056;-59
2021/09/23 00:40:28;;;;;;;4.30;3.83;;;;;;;;;;5067028;28;20032;-58
2021/09/23 00:42:54;;;;;;;4.65;3.90;;;;;;;;;;5066869;28;20028;-59
2021/09/23 00:45:21;;;;;;;3.53;3.00;;;;;;;;;;5067301;28;20023;-58
2021/09/23 00:47:48;;;;;;;3.40;3.10;;;;;;;;;;5067581;28;20031;-59
2021/09/23 00:50:14;;;;;;;3.67;3.20;;;;;;;;;;5067058;28;20037;-58
2021/09/23 00:52:41;;;;;;;4.13;3.55;;;;;;;;;;5066534;28;20035;-58
2021/09/23 00:55:08;;;;;;;3.95;3.20;;;;;;;;;;5066896;28;20058;-58
2021/09/23 00:57:34;;;;;;;3.92;3.53;;;;;;;;;;5066500;28;20028;-58
2021/09/23 01:00:01;;;;;;;4.65;3.20;;;;;;;;;;5081851;28;20028;-58
2021/09/23 01:02:28;;;;;;;3.40;3.10;;;;;;;;;;5086136;28;20032;-58
2021/09/23 01:04:54;;;;;;;3.67;3.33;;;;;;;;;;5068197;28;20036;-58
2021/09/23 01:07:21;;;;;;;3.40;3.03;;;;;;;;;;5048921;28;20031;-58
2021/09/23 01:09:49;;;;;;;3.95;3.55;;;;;;;;;;5067346;28;20077;-58
2021/09/23 01:12:16;;;;;;;3.63;3.25;;;;;;;;;;5065873;28;20554;-58
2021/09/23 01:14:42;;;;;;;3.75;3.17;;;;;;;;;;5066694;28;20392;-58
2021/09/23 01:17:08;;;;;;;3.20;2.90;;;;;;;;;;5066448;28;20082;-58
2021/09/23 01:19:35;;;;;;;4.30;3.70;;;;;;;;;;5048353;28;20027;-58
2021/09/23 01:22:01;;;;;;;4.15;3.33;;;;;;;;;;5064548;28;20056;-58
2021/09/23 01:24:28;;;;;;;4.07;3.63;;;;;;;;;;5066354;28;20025;-58
2021/09/23 01:26:57;;;;;;;4.45;3.30;;;;;;;;;;5066626;28;20017;-58
2021/09/23 01:29:27;;;;;;;5.07;3.83;;;;;;;;;;5048091;28;20029;-58
2021/09/23 01:31:53;;;;;;;4.10;3.70;;;;;;;;;;5066389;28;20036;-59
2021/09/23 01:34:20;;;;;;;4.40;3.78;;;;;;;;;;5065785;28;20534;-59
2021/09/23 01:36:46;;;;;;;4.28;3.45;;;;;;;;;;5067330;28;20054;-59
2021/09/23 01:39:22;;;;;;;3.42;3.03;;;;;;;;;;5066332;28;20525;-58
2021/09/23 01:41:48;;;;;;;3.78;3.05;;;;;;;;;;5066907;28;20057;-58
2021/09/23 01:44:14;;;;;;;3.72;3.30;;;;;;;;;;5066318;28;20104;-58
2021/09/23 01:46:40;;;;;;;4.53;3.22;;;;;;;;;;5066008;28;20424;-58
2021/09/23 01:49:07;;;;;;;3.97;3.53;;;;;;;;;;5065240;28;20028;-58
2021/09/23 01:51:33;;;;;;;4.65;3.20;;;;;;;;;;5066197;28;20036;-58
2021/09/23 01:53:59;;;;;;;3.42;3.13;;;;;;;;;;5066349;28;20033;-58
2021/09/23 01:56:25;;;;;;;3.85;3.03;;;;;;;;;;5066121;28;20103;-59
2021/09/23 01:58:51;;;;;;;3.25;2.95;;;;;;;;;;5066098;28;20388;-58
2021/09/23 02:01:17;;;;;;;3.83;3.15;;;;;;;;;;5066326;28;20025;-58
2021/09/23 02:03:44;;;;;;;3.70;3.40;;;;;;;;;;5065235;28;20021;-58
2021/09/23 02:06:10;;;;;;;3.67;3.25;;;;;;;;;;5064928;28;20461;-58
2021/09/23 02:08:36;;;;;;;3.70;3.28;;;;;;;;;;5065680;28;20029;-58
2021/09/23 02:11:03;;;;;;;4.85;3.60;;;;;;;;;;5048221;28;20103;-58
2021/09/23 02:13:29;;;;;;;4.05;3.65;;;;;;;;;;5081162;28;20063;-59
2021/09/23 02:15:55;;;;;;;5.60;3.53;;;;;;;;;;5085563;28;20647;-58
2021/09/23 02:18:21;;;;;;;4.90;3.63;;;;;;;;;;5085773;28;20471;-58
2021/09/23 02:20:47;;;;;;;5.68;3.35;;;;;;;;;;5086990;28;20547;-58
2021/09/23 02:23:13;;;;;;;4.38;3.90;;;;;;;;;;5067705;28;20519;-59
2021/09/23 02:25:39;;;;;;;5.03;4.20;;;;;;;;;;5065622;28;20028;-59
2021/09/23 02:28:05;;;;;;;4.45;3.80;;;;;;;;;;5069110;28;20549;-58
2021/09/23 02:30:32;;;;;;;4.90;4.30;;;;;;;;;;5069255;28;20060;-58
2021/09/23 02:32:58;;;;;;;6.03;4.85;;;;;;;;;;5084220;28;20081;-58
2021/09/23 02:35:25;;;;;;;6.20;5.00;;;;;;;;;;5089639;28;20525;-59
2021/09/23 02:37:51;;;;;;;5.38;4.75;;;;;;;;;;5089690;28;20028;-58
2021/09/23 02:40:17;;;;;;;6.65;4.80;;;;;;;;;;5090237;28;20055;-58
2021/09/23 02:42:43;;;;;;;6.30;5.03;;;;;;;;;;5089506;28;20039;-59
2021/09/23 02:45:10;;;;;;;5.55;4.82;;;;;;;;;;5078739;28;20055;-59
2021/09/23 02:47:36;;;;;;;6.50;4.72;;;;;;;;;;5069081;28;20032;-58
2021/09/23 02:50:03;;;;;;;5.90;4.80;;;;;;;;;;5069285;28;20021;-58
2021/09/23 02:52:29;;;;;;;5.13;4.57;;;;;;;;;;5069041;28;20052;-59
2021/09/23 02:54:56;;;;;;;6.03;5.03;;;;;;;;;;5069451;28;20024;-58
2021/09/23 02:57:22;;;;;;;6.68;4.70;;;;;;;;;;5068764;28;20111;-58
2021/09/23 02:59:48;;;;;;;5.35;4.35;;;;;;;;;;5069624;28;20024;-58
2021/09/23 03:02:14;;;;;;;6.15;4.93;;;;;;;;;;5068478;28;20139;-58
2021/09/23 03:04:40;;;;;;;5.10;4.35;;;;;;;;;;5069081;28;20603;-59
2021/09/23 03:07:06;;;;;;;4.78;4.28;;;;;;;;;;5068146;28;20020;-58
2021/09/23 03:09:32;;;;;;;5.00;4.20;;;;;;;;;;5068929;28;20096;-59
2021/09/23 03:11:59;;;;;;;5.18;4.25;;;;;;;;;;5068867;28;20017;-59
2021/09/23 03:14:25;;;;;;;5.05;4.18;;;;;;;;;;5068607;28;20399;-59
2021/09/23 03:16:52;;;;;;;5.78;4.40;;;;;;;;;;5084545;28;20082;-58
2021/09/23 03:19:18;;;;;;;4.30;3.90;;;;;;;;;;5089145;28;20030;-59
2021/09/23 03:21:44;;;;;;;4.63;4.13;;;;;;;;;;5088776;28;20677;-58
2021/09/23 03:24:11;;;;;;;4.60;3.63;;;;;;;;;;5087843;28;20020;-59
2021/09/23 03:26:40;;;;;;;4.93;4.43;;;;;;;;;;5088567;28;20237;-58
2021/09/23 03:29:07;;;;;;;5.20;4.15;;;;;;;;;;5089037;28;20024;-58
2021/09/23 03:31:33;;;;;;;5.20;4.30;;;;;;;;;;5085096;28;20025;-59
2021/09/23 03:33:59;;;;;;;5.45;4.63;;;;;;;;;;5087138;28;20407;-59
2021/09/23 03:36:27;;;;;;;5.72;4.07;;;;;;;;;;5087170;28;20436;-59
2021/09/23 03:38:55;;;;;;;4.22;3.70;;;;;;;;;;5086887;28;20074;-59
2021/09/23 03:41:23;;;;;;;4.20;3.70;;;;;;;;;;5086765;28;20021;-59
2021/09/23 03:43:49;;;;;;;5.70;4.45;;;;;;;;;;5087669;28;20248;-58
2021/09/23 03:46:16;;;;;;;4.25;3.50;;;;;;;;;;5087159;28;20026;-59
2021/09/23 03:48:44;;;;;;;5.00;3.70;;;;;;;;;;5086948;28;20039;-58
2021/09/23 03:51:10;;;;;;;5.70;4.00;;;;;;;;;;5087064;28;20035;-58
2021/09/23 03:53:38;;;;;;;3.85;3.45;;;;;;;;;;5086758;28;20461;-58
2021/09/23 03:56:04;;;;;;;4.05;3.38;;;;;;;;;;5084108;28;20103;-58
2021/09/23 03:58:30;;;;;;;5.30;3.72;;;;;;;;;;5066309;28;20032;-58
2021/09/23 04:00:57;;;;;;;3.97;3.40;;;;;;;;;;5066198;28;20028;-58
2021/09/23 04:03:23;;;;;;;4.65;3.78;;;;;;;;;;5068759;28;20027;-59
2021/09/23 04:05:50;;;;;;;4.80;3.85;;;;;;;;;;5087525;28;20032;-58
2021/09/23 04:08:17;;;;;;;5.68;4.40;;;;;;;;;;5073368;28;20637;-59
2021/09/23 04:10:44;;;;;;;5.65;3.58;;;;;;;;;;5066678;28;20016;-59
2021/09/23 04:13:10;;;;;;;4.60;3.78;;;;;;;;;;5064497;28;20547;-59
2021/09/23 04:15:36;;;;;;;4.45;3.85;;;;;;;;;;5065630;28;20028;-59
2021/09/23 04:18:02;;;;;;;5.20;4.35;;;;;;;;;;5065096;28;20064;-59
2021/09/23 04:20:28;;;;;;;3.85;3.47;;;;;;;;;;5065750;28;20054;-59
2021/09/23 04:22:54;;;;;;;5.05;3.83;;;;;;;;;;5066590;28;20260;-59
2021/09/23 04:25:21;;;;;;;4.97;4.03;;;;;;;;;;5065675;28;20043;-59
2021/09/23 04:27:47;;;;;;;4.40;3.95;;;;;;;;;;5066541;28;20060;-59
2021/09/23 04:30:13;;;;;;;5.30;4.45;;;;;;;;;;5065670;28;20029;-59
2021/09/23 04:32:39;;;;;;;4.55;3.83;;;;;;;;;;5065256;28;20039;-59
2021/09/23 04:35:06;;;;;;;5.38;4.13;;;;;;;;;;5065802;28;20024;-59
2021/09/23 04:37:32;;;;;;;5.55;4.40;;;;;;;;;;5065343;28;20156;-59
2021/09/23 04:39:59;;;;;;;5.03;4.25;;;;;;;;;;5065343;28;20045;-59
2021/09/23 04:42:25;;;;;;;5.47;4.03;;;;;;;;;;5065507;28;20032;-58
2021/09/23 04:44:52;;;;;;;7.05;4.93;;;;;;;;;;5067507;28;20039;-58
2021/09/23 04:47:19;;;;;;;5.15;4.20;;;;;;;;;;5085445;28;20024;-59
2021/09/23 04:49:45;;;;;;;5.55;4.50;;;;;;;;;;5085211;28;20031;-58
2021/09/23 04:52:11;;;;;;;5.65;4.30;;;;;;;;;;5085290;28;20069;-59
2021/09/23 04:54:37;;;;;;;6.40;4.32;;;;;;;;;;5085635;28;20669;-59
2021/09/23 04:57:03;;;;;;;5.22;3.85;;;;;;;;;;5083136;28;20138;-59
2021/09/23 04:59:30;;;;;;;6.35;5.10;;;;;;;;;;5085139;28;20028;-59
2021/09/23 05:01:56;;;;;;;4.70;3.97;;;;;;;;;;5085201;28;20464;-59
2021/09/23 05:04:23;;;;;;;5.00;3.95;;;;;;;;;;5086099;28;20150;-59
2021/09/23 05:06:52;;;;;;;5.40;4.32;;;;;;;;;;5085195;28;20024;-59
2021/09/23 05:09:18;;;;;;;4.97;4.22;;;;;;;;;;5085132;28;20115;-59
2021/09/23 05:11:44;;;;;;;5.13;4.22;;;;;;;;;;5085225;28;20103;-59
2021/09/23 05:14:15;;;;;;;4.88;4.13;;;;;;;;;;5083250;28;20645;-59
2021/09/23 05:16:43;;;;;;;4.75;4.00;;;;;;;;;;5082858;28;20031;-59
2021/09/23 05:19:09;;;;;;;5.13;4.43;;;;;;;;;;5085455;28;20020;-59
2021/09/23 05:21:36;;;;;;;5.50;4.05;;;;;;;;;;5079983;28;20081;-59
2021/09/23 05:24:04;;;;;;;4.85;3.92;;;;;;;;;;5069928;28;20560;-59
2021/09/23 05:26:30;;;;;;;4.45;4.03;;;;;;;;;;5085010;28;20418;-59
2021/09/23 05:28:56;;;;;;;5.03;4.00;;;;;;;;;;5085888;28;20085;-59
2021/09/23 05:31:23;;;;;;;4.85;4.15;;;;;;;;;;5083351;28;20147;-59
2021/09/23 05:33:49;;;;;;;4.63;3.78;;;;;;;;;;5084810;28;20020;-59
2021/09/23 05:36:15;;;;;;;5.18;4.22;;;;;;;;;;5083314;28;20028;-59
2021/09/23 05:38:41;;;;;;;5.82;4.30;;;;;;;;;;5082311;28;20031;-58
2021/09/23 05:41:07;;;;;;;5.57;4.45;;;;;;;;;;5084973;28;20042;-59
2021/09/23 05:43:33;;;;;;;4.95;4.07;;;;;;;;;;5084358;28;20055;-59
2021/09/23 05:45:59;;;;;;;4.95;4.32;;;;;;;;;;5069845;28;20108;-59
2021/09/23 05:48:27;;;;;;;5.05;4.05;;;;;;;;;;5066325;28;20050;-58
2021/09/23 05:50:54;;;;;;;4.93;4.28;;;;;;;;;;5066040;28;20040;-58
2021/09/23 05:53:20;;;;;;;5.20;4.20;;;;;;;;;;5065191;28;20035;-59
2021/09/23 05:55:46;;;;;;;4.72;4.22;;;;;;;;;;5065530;28;20110;-58
2021/09/23 05:58:12;;;;;;;5.47;4.03;;;;;;;;;;5066246;28;20116;-59
2021/09/23 06:00:39;;;;;;;6.43;4.05;;;;;;;;;;5066187;28;20028;-59
2021/09/23 06:03:05;;;;;;;7.28;3.85;;;;;;;;;;5087652;28;20039;-59
2021/09/23 06:05:31;;;;;;;4.38;3.88;;;;;;;;;;5069054;28;20036;-59
2021/09/23 06:07:57;;;;;;;4.38;3.65;;;;;;;;;;5070134;28;20108;-59
2021/09/23 06:10:23;;;;;;;5.95;4.60;;;;;;;;;;5068676;28;20507;-59
2021/09/23 06:12:49;;;;;;;5.40;4.45;;;;;;;;;;5069349;28;20027;-59
2021/09/23 06:15:15;;;;;;;4.50;3.75;;;;;;;;;;5089890;28;20107;-59
2021/09/23 06:17:42;;;;;;;4.55;4.03;;;;;;;;;;5089426;28;20464;-58
2021/09/23 06:20:08;;;;;;;4.93;4.30;;;;;;;;;;5090336;28;20053;-59
2021/09/23 06:22:34;;;;;;;5.35;4.45;;;;;;;;;;5090229;28;20016;-59
2021/09/23 06:25:00;;;;;;;4.18;3.72;;;;;;;;;;5089955;28;20028;-59
2021/09/23 06:27:26;;;;;;;5.38;4.20;;;;;;;;;;5089327;28;20024;-59
2021/09/23 06:29:52;;;;;;;5.95;4.30;;;;;;;;;;5077027;28;20064;-59
2021/09/23 06:32:18;;;;;;;5.40;4.13;;;;;;;;;;5067720;28;20059;-59
2021/09/23 06:34:45;;;;;;;5.47;4.25;;;;;;;;;;5068229;28;20447;-59
2021/09/23 06:37:12;;;;;;;5.28;4.10;;;;;;;;;;5067885;28;20021;-59
2021/09/23 06:39:40;;;;;;;4.72;3.95;;;;;;;;;;5049440;28;20435;-59
2021/09/23 06:42:06;;;;;;;4.85;4.05;;;;;;;;;;5078792;28;20040;-59
2021/09/23 06:44:32;;;;;;;4.65;3.97;;;;;;;;;;5086681;28;20099;-59
2021/09/23 06:46:58;;;;;;;5.63;4.05;;;;;;;;;;5089569;28;20623;-59
2021/09/23 06:49:25;;;;;;;4.82;3.92;;;;;;;;;;5073312;28;20064;-59
2021/09/23 06:51:52;;;;;;;5.22;4.18;;;;;;;;;;5067570;28;20059;-59
2021/09/23 06:54:18;;;;;;;4.38;3.72;;;;;;;;;;5068043;28;20055;-59
2021/09/23 06:56:45;;;;;;;5.15;4.18;;;;;;;;;;5068911;28;20506;-59
2021/09/23 06:59:11;;;;;;;4.22;3.60;;;;;;;;;;5071857;28;20042;-59
2021/09/23 07:01:38;;;;;;;3.88;3.35;;;;;;;;;;5068358;28;20036;-59
2021/09/23 07:04:05;;;;;;;4.22;3.30;;;;;;;;;;5068283;28;20028;-59
2021/09/23 07:06:31;;;;;;;4.53;3.63;;;;;;;;;;5067787;28;20021;-58
2021/09/23 07:08:57;;;;;;;4.00;3.25;;;;;;;;;;5060183;28;20025;-59
2021/09/23 07:11:23;;;;;;;3.55;3.10;;;;;;;;;;5059182;28;20081;-59
2021/09/23 07:13:50;;;;;;;4.50;3.67;;;;;;;;;;5066496;28;20085;-59
2021/09/23 07:16:16;;;;;;;3.42;3.13;;;;;;;;;;5067210;28;20027;-59
2021/09/23 07:18:43;;;;;;;4.05;3.20;;;;;;;;;;5067835;28;20161;-59
2021/09/23 07:21:09;;;;;;;4.28;3.38;;;;;;;;;;5067344;28;20509;-59
2021/09/23 07:23:35;;;;;;;3.08;2.78;;;;;;;;;;5075474;28;20561;-59
2021/09/23 07:26:01;;;;;;;3.55;2.90;;;;;;;;;;5069478;28;20110;-59
2021/09/23 07:28:27;;;;;;;3.58;2.88;;;;;;;;;;5067534;28;20094;-59
2021/09/23 07:30:53;;;;;;;3.38;2.92;;;;;;;;;;5066162;28;20050;-59
2021/09/23 07:33:19;;;;;;;3.17;2.83;;;;;;;;;;5064841;28;20033;-60
2021/09/23 07:35:46;;;;;;;2.97;2.67;;;;;;;;;;5066572;28;20039;-59
2021/09/23 07:38:12;;;;;;;2.90;2.50;;;;;;;;;;5067988;28;20086;-59
2021/09/23 07:40:38;;;;;;;3.33;2.97;;;;;;;;;;5068928;28;20048;-59
2021/09/23 07:43:04;;;;;;;4.05;3.10;;;;;;;;;;5068613;28;20115;-59
2021/09/23 07:45:30;;;;;;;3.40;2.80;;;;;;;;;;5068776;28;20032;-58
2021/09/23 07:47:56;;;;;;;4.13;3.33;;;;;;;;;;5068381;28;20104;-59
2021/09/23 07:50:23;;;;;;;3.30;2.90;;;;;;;;;;5065136;28;20024;-59
2021/09/23 07:52:49;;;;;;;3.50;2.72;;;;;;;;;;5066773;28;20078;-59
2021/09/23 07:55:15;;;;;;;3.90;3.40;;;;;;;;;;5067777;28;20036;-59
2021/09/23 07:57:41;;;;;;;4.03;3.25;;;;;;;;;;5067441;28;20047;-58
2021/09/23 08:00:08;;;;;;;3.20;2.85;;;;;;;;;;5068282;28;20125;-59
2021/09/23 08:02:34;;;;;;;3.75;3.00;;;;;;;;;;5066834;28;20021;-58
2021/09/23 08:05:00;;;;;;;4.78;3.67;;;;;;;;;;5064908;28;20482;-59
2021/09/23 08:07:26;;;;;;;5.20;3.60;;;;;;;;;;5066007;28;20028;-59
2021/09/23 08:09:52;;;;;;;4.57;3.70;;;;;;;;;;5065647;28;20025;-59
2021/09/23 08:12:18;;;;;;;5.40;3.63;;;;;;;;;;5065704;28;20020;-59
2021/09/23 08:14:45;;;;;;;3.92;2.97;;;;;;;;;;5066087;28;20025;-58
2021/09/23 08:17:11;;;;;;;4.22;2.85;;;;;;;;;;5066128;28;20321;-59
2021/09/23 08:19:37;;;;;;;3.47;3.05;;;;;;;;;;5066739;28;20589;-59
2021/09/23 08:22:06;;;;;;;3.58;2.88;;;;;;;;;;5066012;28;20024;-59
2021/09/23 08:24:33;;;;;;;3.28;2.95;;;;;;;;;;5064889;28;20021;-58
2021/09/23 08:26:59;;;;;;;2.50;2.30;;;;;;;;;;5066035;28;20028;-58
2021/09/23 08:29:25;;;;;;;2.88;2.55;;;;;;;;;;5065413;28;20515;-59
2021/09/23 08:31:51;;;;;;;2.97;2.58;;;;;;;;;;5065565;28;20085;-59
2021/09/23 08:34:17;;;;;;;3.25;2.50;;;;;;;;;;5065756;28;20440;-59
2021/09/23 08:36:45;;;;;;;2.58;2.20;;;;;;;;;;5065738;28;20521;-59
2021/09/23 08:39:12;;;;;;;2.53;2.00;;;;;;;;;;5065297;28;20028;-59
2021/09/23 08:41:38;;;;;;;2.35;2.15;;;;;;;;;;5065895;28;20066;-58
2021/09/23 08:44:04;;;;;;;3.10;2.78;;;;;;;;;;5065385;28;20048;-59
2021/09/23 08:46:34;;;;;;;3.20;2.28;;;;;;;;;;5065632;28;20029;-58
2021/09/23 08:49:04;;;;;;;2.90;2.58;;;;;;;;;;5065838;28;20028;-58
2021/09/23 08:51:30;;;;;;;2.72;2.25;;;;;;;;;;5065266;28;20025;-58
2021/09/23 08:53:56;;;;;;;2.30;2.10;;;;;;;;;;5065244;28;20108;-59
2021/09/23 08:56:23;;;;;;;2.05;1.85;;;;;;;;;;5065003;28;20028;-58
2021/09/23 08:58:49;;;;;;;2.42;2.05;;;;;;;;;;5065101;28;20021;-59
2021/09/23 09:01:18;;;;;;;2.28;2.00;;;;;;;;;;5065151;28;20028;-59
2021/09/23 09:03:44;;;;;;;1.88;1.77;;;;;;;;;;5064814;28;20024;-59
2021/09/23 09:06:14;;;;;;;2.10;1.90;;;;;;;;;;5065224;28;20024;-59
2021/09/23 09:08:42;;;;;;;1.58;1.48;;;;;;;;;;5065036;28;20032;-59
2021/09/23 09:11:10;;;;;;;1.63;1.52;;;;;;;;;;5065923;28;20062;-58
2021/09/23 09:13:37;;;;;;;2.05;1.70;;;;;;;;;;5065142;28;20059;-59
2021/09/23 09:16:08;;;;;;;2.30;1.90;;;;;;;;;;5065386;28;20032;-58
2021/09/23 09:18:34;;;;;;;2.20;2.00;;;;;;;;;;5064774;28;20031;-58
2021/09/23 09:21:01;;;;;;;1.83;1.73;;;;;;;;;;5065096;28;20025;-59
2021/09/23 09:23:39;;;;;;;1.35;1.25;;;;;;;;;;5064705;28;20485;-59
2021/09/23 09:26:05;;;;;;;1.63;1.52;;;;;;;;;;5065692;28;20229;-59
2021/09/23 09:28:31;;;;;;;1.88;1.75;;;;;;;;;;5063106;28;20024;-59
2021/09/23 09:30:59;;;;;;;1.90;1.70;;;;;;;;;;5065037;28;20032;-59
2021/09/23 09:33:39;;;;;;;1.52;1.42;;;;;;;;;;5064533;28;20434;-58
2021/09/23 09:36:23;;;;;;;1.67;1.58;;;;;;;;;;5065176;28;20425;-59
2021/09/23 09:38:49;;;;;;;1.67;1.50;;;;;;;;;;5064573;28;20017;-59
2021/09/23 09:41:15;;;;;;;1.73;1.50;;;;;;;;;;5064253;28;20515;-59
2021/09/23 09:43:43;;;;;;;1.52;1.42;;;;;;;;;;5064094;28;20082;-59
2021/09/23 09:46:23;;;;;;;1.42;1.33;;;;;;;;;;5065665;28;20075;-59
2021/09/23 09:48:49;;;;;;;2.05;1.85;;;;;;;;;;5080060;28;20031;-59
2021/09/23 09:51:15;;;;;;;1.60;1.50;;;;;;;;;;5075323;28;20078;-59
2021/09/23 09:53:41;;;;;;;1.40;1.30;;;;;;;;;;5065721;28;20063;-59
2021/09/23 09:56:21;;;;;;;1.55;1.40;;;;;;;;;;5066576;28;21470;-58
2021/09/23 09:59:05;;;;;;;1.10;1.00;;;;;;;;;;5063394;28;20024;-58
2021/09/23 10:01:32;;;;;;;1.67;1.30;;;;;;;;;;5065423;28;20072;-59
2021/09/23 10:03:58;;;;;;;1.35;1.25;;;;;;;;;;5063693;28;20033;-59
2021/09/23 10:06:25;;;;;;;1.70;1.17;;;;;;;;;;5065237;28;20074;-59
2021/09/23 10:08:52;;;;;;;1.70;1.60;;;;;;;;;;5065369;28;20121;-59
2021/09/23 10:11:18;;;;;;;2.25;1.77;;;;;;;;;;5065278;28;20029;-59
2021/09/23 10:13:45;;;;;;;1.23;1.13;;;;;;;;;;5067360;28;20031;-59
2021/09/23 10:16:12;;;;;;;1.63;1.52;;;;;;;;;;5067764;28;20131;-59
2021/09/23 10:18:38;;;;;;;1.35;1.25;;;;;;;;;;5066813;28;20562;-59
2021/09/23 10:21:05;;;;;;;1.30;1.20;;;;;;;;;;5066649;28;20048;-59
2021/09/23 10:23:31;;;;;;;1.25;1.15;;;;;;;;;;5066694;28;20032;-59
2021/09/23 10:25:59;;;;;;;1.27;1.17;;;;;;;;;;5069710;28;20535;-59
2021/09/23 10:28:26;;;;;;;1.30;1.20;;;;;;;;;;5067598;28;20032;-59
2021/09/23 10:30:52;;;;;;;1.60;1.50;;;;;;;;;;5066070;28;20135;-59
2021/09/23 10:33:18;;;;;;;1.95;1.55;;;;;;;;;;5067304;28;20099;-59
2021/09/23 10:35:45;;;;;;;1.42;1.33;;;;;;;;;;5067107;28;20033;-59
2021/09/23 10:38:13;;;;;;;1.85;1.75;;;;;;;;;;5067327;28;20036;-59
2021/09/23 10:40:40;;;;;;;1.63;1.50;;;;;;;;;;5067248;28;20110;-58
2021/09/23 10:43:09;;;;;;;1.48;1.38;;;;;;;;;;5066928;28;20025;-59
2021/09/23 10:45:36;;;;;;;1.60;1.50;;;;;;;;;;5066535;28;20056;-59
2021/09/23 10:48:03;;;;;;;1.40;1.30;;;;;;;;;;5064422;28;20040;-59
2021/09/23 10:50:31;;;;;;;1.50;1.40;;;;;;;;;;5070808;28;20111;-59
2021/09/23 10:52:58;;;;;;;1.55;1.45;;;;;;;;;;5070129;28;20035;-59
2021/09/23 10:55:31;;;;;;;1.17;1.10;;;;;;;;;;5070418;28;20115;-59
2021/09/23 10:57:58;;;;;;;1.60;1.50;;;;;;;;;;5070674;28;20020;-59
2021/09/23 11:00:28;;;;;;;1.45;1.30;;;;;;;;;;5069794;28;20032;-59
2021/09/23 11:02:55;;;;;;;2.40;2.20;;;;;;;;;;5070370;28;20549;-59
2021/09/23 11:05:22;;;;;;;1.95;1.45;;;;;;;;;;5070080;28;20025;-59
2021/09/23 11:07:49;;;;;;;1.70;1.60;;;;;;;;;;5070351;28;20036;-58
2021/09/23 11:10:18;;;;;;;1.40;1.30;;;;;;;;;;5070099;28;20056;-59
2021/09/23 11:12:45;;;;;;;1.45;1.35;;;;;;;;;;5076124;28;20043;-59
2021/09/23 11:15:13;;;;;;;1.30;1.20;;;;;;;;;;5076842;28;20022;-58
2021/09/23 11:17:40;;;;;;;1.00;1.00;;;;;;;;;;5081896;28;20701;-59
2021/09/23 11:20:11;;;;;;;1.20;1.10;;;;;;;;;;5070359;28;20048;-57
2021/09/23 11:22:38;;;;;;;1.30;1.20;;;;;;;;;;5067856;28;20124;-58
2021/09/23 11:25:06;;;;;;;0.98;0.98;;;;;;;;;;5068488;28;20078;-59
2021/09/23 11:27:33;;;;;;;1.25;1.15;;;;;;;;;;5068158;28;20024;-59
2021/09/23 11:29:59;;;;;;;1.08;0.98;;;;;;;;;;5066946;28;20499;-59
2021/09/23 11:32:25;;;;;;;1.02;1.02;;;;;;;;;;5053826;28;20032;-59
2021/09/23 11:34:58;;;;;;;1.15;1.05;;;;;;;;;;5068462;28;20402;-59
2021/09/23 11:37:28;;;;;;;0.90;0.90;;;;;;;;;;5070045;28;20382;-59
2021/09/23 11:39:57;;;;;;;1.40;1.30;;;;;;;;;;5067494;28;20422;-59
2021/09/23 11:42:24;;;;;;;1.20;1.10;;;;;;;;;;5049813;28;20419;-59
2021/09/23 11:44:51;;;;;;;1.42;1.33;;;;;;;;;;5068066;28;20025;-59
2021/09/23 11:47:19;;;;;;;1.83;1.73;;;;;;;;;;5067166;28;20542;-60
2021/09/23 11:49:49;;;;;;;1.85;1.70;;;;;;;;;;5058315;28;20028;-59
2021/09/23 11:52:15;;;;;;;2.30;2.10;;;;;;;;;;5067721;28;20033;-60
2021/09/23 11:54:41;;;;;;;3.08;2.30;;;;;;;;;;5067975;28;20028;-59
2021/09/23 11:57:07;;;;;;;2.60;2.40;;;;;;;;;;5067316;28;20036;-60
2021/09/23 11:59:33;;;;;;;2.83;2.60;;;;;;;;;;5081130;28;20122;-60
2021/09/23 12:02:04;;;;;;;2.90;2.40;;;;;;;;;;5078877;28;20025;-59
2021/09/23 12:04:34;;;;;;;4.13;2.60;;;;;;;;;;5067499;28;20073;-59
2021/09/23 12:07:04;;;;;;;4.63;2.83;;;;;;;;;;5067540;28;20033;-59
2021/09/23 12:09:30;;;;;;;2.80;2.53;;;;;;;;;;5064738;28;20063;-59
2021/09/23 12:11:56;;;;;;;2.40;2.20;;;;;;;;;;5067058;28;20081;-60
2021/09/23 12:14:23;;;;;;;2.40;2.20;;;;;;;;;;5068375;28;20534;-60
2021/09/23 12:16:59;;;;;;;2.33;2.13;;;;;;;;;;5066441;28;20439;-59
2021/09/23 12:19:24;;;;;;;2.83;2.42;;;;;;;;;;5065442;28;20048;-60
2021/09/23 12:21:54;;;;;;;2.70;2.50;;;;;;;;;;5067922;28;20036;-60
2021/09/23 12:24:40;;;;;;;2.00;1.90;;;;;;;;;;5067221;28;20031;-59
2021/09/23 12:27:07;;;;;;;2.42;2.22;;;;;;;;;;5060281;28;20455;-60
2021/09/23 12:29:34;;;;;;;2.38;2.17;;;;;;;;;;5067996;28;20025;-60
2021/09/23 12:32:05;;;;;;;2.63;2.13;;;;;;;;;;5066362;28;20033;-61
2021/09/23 12:34:40;;;;;;;3.00;2.30;;;;;;;;;;5048402;28;20107;-61
2021/09/23 12:37:07;;;;;;;2.35;2.15;;;;;;;;;;5049151;28;20029;-59
2021/09/23 12:39:43;;;;;;;2.17;1.98;;;;;;;;;;5030587;28;20029;-60
2021/09/23 12:42:09;;;;;;;2.30;2.10;;;;;;;;;;5071382;28;20457;-59
2021/09/23 12:44:37;;;;;;;2.50;2.17;;;;;;;;;;5053977;28;20017;-59
2021/09/23 12:47:13;;;;;;;2.40;2.20;;;;;;;;;;5088499;28;20032;-59
2021/09/23 12:49:41;;;;;;;2.58;2.08;;;;;;;;;;5087714;28;20225;-59
2021/09/23 12:52:15;;;;;;;2.50;2.30;;;;;;;;;;5080683;28;20034;-59
2021/09/23 12:54:49;;;;;;;2.30;2.10;;;;;;;;;;5068292;28;20087;-59
2021/09/23 12:57:19;;;;;;;2.65;2.45;;;;;;;;;;5067928;28;20024;-59
2021/09/23 12:59:46;;;;;;;2.70;2.50;;;;;;;;;;5075179;28;20052;-60
2021/09/23 13:02:12;;;;;;;2.55;1.90;;;;;;;;;;5065968;28;20028;-60
2021/09/23 13:04:39;;;;;;;2.40;2.20;;;;;;;;;;5067051;28;20025;-60
2021/09/23 13:07:17;;;;;;;2.40;2.20;;;;;;;;;;5068933;28;20043;-60
2021/09/23 13:10:16;;;;;;;2.50;1.77;;;;;;;;;;5068799;28;20029;-60
2021/09/23 13:12:49;;;;;;;1.65;1.55;;;;;;;;;;5035547;28;20036;-60
2021/09/23 13:15:19;;;;;;;1.80;1.70;;;;;;;;;;5079783;28;20020;-61
2021/09/23 13:17:55;;;;;;;1.90;1.67;;;;;;;;;;5076247;28;20056;-61
2021/09/23 13:20:21;;;;;;;1.60;1.50;;;;;;;;;;5067563;28;20067;-61
2021/09/23 13:22:47;;;;;;;1.52;1.42;;;;;;;;;;5068682;28;20040;-62
2021/09/23 13:25:13;;;;;;;2.03;1.02;;;;;;;;;;5069000;28;20020;-62
2021/09/23 13:27:41;;;;;;;1.45;1.33;;;;;;;;;;5068129;28;20020;-61
2021/09/23 13:30:11;;;;;;;2.88;1.90;;;;;;;;;;5067704;28;20037;-63
2021/09/23 13:32:38;;;;;;;1.95;1.75;;;;;;;;;;5068754;28;20051;-61
2021/09/23 13:35:04;;;;;;;2.38;2.17;;;;;;;;;;5071218;28;20036;-62
2021/09/23 13:37:30;;;;;;;2.20;1.98;;;;;;;;;;5075669;28;20019;-61
2021/09/23 13:39:57;;;;;;;1.65;1.55;;;;;;;;;;5067636;28;20036;-62
2021/09/23 13:42:23;;;;;;;2.00;1.80;;;;;;;;;;5083465;28;20447;-62
2021/09/23 13:44:49;;;;;;;1.58;1.48;;;;;;;;;;5088490;28;20030;-63
2021/09/23 13:47:15;;;;;;;2.40;2.20;;;;;;;;;;5086448;28;20486;-62
2021/09/23 13:49:41;;;;;;;2.20;2.00;;;;;;;;;;5065762;28;20529;-61
2021/09/23 13:52:07;;;;;;;2.33;2.08;;;;;;;;;;5086620;28;20142;-62
2021/09/23 13:54:34;;;;;;;2.25;2.05;;;;;;;;;;5087938;28;20036;-62
2021/09/23 13:57:01;;;;;;;2.28;2.08;;;;;;;;;;5075844;28;20033;-62
2021/09/23 13:59:27;;;;;;;1.70;1.60;;;;;;;;;;5076142;28;20033;-62
2021/09/23 14:01:53;;;;;;;2.17;1.98;;;;;;;;;;5087009;28;20379;-62
2021/09/23 14:04:19;;;;;;;2.00;1.80;;;;;;;;;;5076358;28;20029;-62
2021/09/23 14:06:45;;;;;;;2.00;1.83;;;;;;;;;;5077607;28;20101;-61
2021/09/23 14:09:11;;;;;;;2.10;1.85;;;;;;;;;;5058353;28;20059;-62
2021/09/23 14:11:37;;;;;;;1.70;1.60;;;;;;;;;;5065731;28;20759;-62
2021/09/23 14:14:03;;;;;;;1.60;1.50;;;;;;;;;;5067311;28;20164;-62
2021/09/23 14:16:29;;;;;;;1.40;1.30;;;;;;;;;;5065773;28;20491;-63
2021/09/23 14:18:55;;;;;;;1.42;1.33;;;;;;;;;;5067440;28;20127;-62
2021/09/23 14:21:21;;;;;;;1.60;1.50;;;;;;;;;;5053198;28;20021;-63
2021/09/23 14:23:47;;;;;;;1.40;1.30;;;;;;;;;;5064345;28;20025;-62
2021/09/23 14:26:15;;;;;;;1.70;1.60;;;;;;;;;;5050632;28;20029;-63
2021/09/23 14:28:42;;;;;;;1.98;1.77;;;;;;;;;;5067823;28;20119;-63
2021/09/23 14:31:08;;;;;;;1.88;1.67;;;;;;;;;;5060620;28;20032;-63
2021/09/23 14:33:34;;;;;;;1.70;1.60;;;;;;;;;;5070378;28;20032;-63
2021/09/23 14:36:00;;;;;;;1.73;1.63;;;;;;;;;;5076843;28;20122;-63
2021/09/23 14:38:26;;;;;;;2.08;1.52;;;;;;;;;;5091152;28;20063;-63
2021/09/23 14:40:53;;;;;;;1.80;1.60;;;;;;;;;;5091563;28;20458;-62
2021/09/23 14:43:19;;;;;;;1.60;1.50;;;;;;;;;;5090886;28;20035;-63
2021/09/23 14:45:45;;;;;;;1.40;1.30;;;;;;;;;;5089834;28;20043;-63